Time;durP1;ratioP1;P1;durP2;ratioP2;P2;SDS_P1;SDS_P2;PMS_P1;PMS_P2;Temp;Humidity;BMP_temperature;BMP_pressure;BME280_temperature;BME280_humidity;BME280_pressure;Samples;Min_cycle;Max_cycle;Signal;HPM_P1;HPM_P2
2022/06/30 04:02:36;;;;;;;20.17;18.10;;;20.20;99.90;;;;;;5014016;23;20492;-62
2022/06/30 04:05:04;;;;;;;19.77;17.80;;;20.10;99.90;;;;;;5014098;28;20776;-63
2022/06/30 04:07:31;;;;;;;19.87;17.90;;;20.10;99.90;;;;;;5013886;28;20507;-63
2022/06/30 04:09:58;;;;;;;21.33;19.30;;;20.10;99.90;;;;;;5013892;28;20943;-62
2022/06/30 04:12:25;;;;;;;19.80;18.10;;;19.90;99.90;;;;;;5013837;28;20560;-62
2022/06/30 04:14:51;;;;;;;20.93;19.13;;;19.90;99.90;;;;;;5013457;28;20449;-62
2022/06/30 04:17:18;;;;;;;19.50;18.10;;;19.80;99.90;;;;;;5013689;28;20461;-62
2022/06/30 04:19:46;;;;;;;23.83;17.80;;;19.80;99.90;;;;;;5013608;28;20461;-62
2022/06/30 04:22:13;;;;;;;18.47;16.97;;;19.80;99.90;;;;;;5013705;28;20477;-62
2022/06/30 04:24:39;;;;;;;19.20;17.40;;;19.60;99.90;;;;;;5016645;28;20460;-62
2022/06/30 04:27:07;;;;;;;18.07;16.50;;;19.60;99.90;;;;;;5017328;28;20453;-62
2022/06/30 04:29:33;;;;;;;16.53;15.23;;;19.60;99.90;;;;;;5017345;28;20463;-62
2022/06/30 04:34:46;;;;;;;16.17;14.90;;;19.60;99.90;;;;;;5017290;28;20419;-62
2022/06/30 04:37:12;;;;;;;15.83;14.63;;;19.70;99.90;;;;;;5016828;28;20449;-62
2022/06/30 04:39:39;;;;;;;16.60;15.10;;;19.70;99.90;;;;;;5017175;28;20452;-62
2022/06/30 04:42:05;;;;;;;16.90;15.60;;;19.80;99.90;;;;;;5016872;28;20465;-62
2022/06/30 04:44:32;;;;;;;16.60;15.07;;;19.80;99.90;;;;;;5016631;28;20456;-62
2022/06/30 04:46:59;;;;;;;16.83;15.10;;;19.90;99.90;;;;;;5017584;28;20997;-62
2022/06/30 04:49:25;;;;;;;17.13;15.70;;;20.00;99.90;;;;;;5017020;28;20460;-63
2022/06/30 04:51:53;;;;;;;17.23;15.97;;;20.10;99.90;;;;;;5016866;28;20468;-62
2022/06/30 04:54:20;;;;;;;16.53;15.13;;;20.10;99.90;;;;;;5016496;28;21049;-62
2022/06/30 04:56:47;;;;;;;16.73;15.43;;;20.10;99.90;;;;;;5016836;28;20463;-62
2022/06/30 04:59:13;;;;;;;18.70;16.90;;;20.20;99.90;;;;;;5016813;28;20463;-62
2022/06/30 05:01:40;;;;;;;17.57;16.10;;;20.20;99.90;;;;;;5016324;28;20491;-62
2022/06/30 05:04:07;;;;;;;17.13;15.83;;;20.20;99.90;;;;;;5016770;28;20449;-62
2022/06/30 05:06:33;;;;;;;16.30;14.63;;;20.20;99.90;;;;;;5016690;28;20460;-62
2022/06/30 05:09:01;;;;;;;15.50;14.03;;;20.30;99.90;;;;;;5016340;28;20796;-62
2022/06/30 05:11:28;;;;;;;13.43;12.30;;;20.30;99.90;;;;;;5016579;28;20534;-62
2022/06/30 05:13:55;;;;;;;15.33;12.53;;;20.40;99.90;;;;;;5016430;28;20472;-62
2022/06/30 05:16:22;;;;;;;12.93;11.90;;;20.50;99.90;;;;;;5016232;28;20959;-62
2022/06/30 05:18:48;;;;;;;13.90;12.80;;;20.60;99.90;;;;;;5016601;28;20457;-62
2022/06/30 05:21:15;;;;;;;14.07;12.53;;;20.70;99.90;;;;;;5016289;28;20839;-63
2022/06/30 05:26:28;;;;;;;13.50;12.30;;;20.80;99.90;;;;;;5016341;28;20475;-62
2022/06/30 05:26:29;;;;;;;13.53;12.50;;;20.80;99.90;;;;;;5016228;28;20433;-62
2022/06/30 05:28:55;;;;;;;13.20;12.07;;;20.90;99.90;;;;;;5016232;28;20554;-62
2022/06/30 05:31:22;;;;;;;13.83;12.40;;;20.90;99.90;;;;;;5016172;28;20530;-62
2022/06/30 05:33:49;;;;;;;14.53;13.23;;;21.10;99.90;;;;;;5015377;28;20477;-62
2022/06/30 05:36:15;;;;;;;13.80;12.83;;;21.10;99.90;;;;;;5016044;28;20457;-62
2022/06/30 05:38:42;;;;;;;14.83;13.73;;;21.10;99.90;;;;;;5016101;28;20460;-62
2022/06/30 05:41:09;;;;;;;12.87;11.87;;;21.20;99.90;;;;;;5015652;28;20983;-63
2022/06/30 05:43:37;;;;;;;13.13;11.90;;;21.30;99.90;;;;;;5015677;28;20452;-63
2022/06/30 05:46:03;;;;;;;14.50;13.40;;;21.40;99.90;;;;;;5016084;28;20494;-62
2022/06/30 05:48:30;;;;;;;13.10;12.00;;;21.50;99.90;;;;;;5016357;28;20459;-62
2022/06/30 05:50:57;;;;;;;13.60;12.50;;;21.60;99.90;;;;;;5015923;28;20479;-62
2022/06/30 05:53:24;;;;;;;13.87;12.47;;;21.60;99.90;;;;;;5016383;28;20473;-62
2022/06/30 05:55:50;;;;;;;15.33;11.13;;;21.70;99.90;;;;;;5015971;28;20529;-62
2022/06/30 05:58:18;;;;;;;11.37;10.23;;;21.80;99.90;;;;;;5015323;28;20453;-62
2022/06/30 06:00:46;;;;;;;11.70;10.90;;;22.00;99.90;;;;;;5015411;28;20587;-63
2022/06/30 06:03:13;;;;;;;11.83;10.83;;;22.20;99.90;;;;;;5015672;28;20442;-63
2022/06/30 06:05:40;;;;;;;11.53;10.63;;;22.40;99.90;;;;;;5015589;28;20865;-63
2022/06/30 06:08:08;;;;;;;11.70;10.77;;;22.50;99.90;;;;;;5015697;28;20452;-63
2022/06/30 06:10:36;;;;;;;10.50;9.60;;;22.70;99.90;;;;;;5015584;28;20472;-63
2022/06/30 06:13:03;;;;;;;11.10;10.00;;;22.90;99.90;;;;;;5016154;28;20485;-62
2022/06/30 06:15:29;;;;;;;9.70;8.90;;;23.00;99.90;;;;;;5016435;28;20452;-62
2022/06/30 06:17:58;;;;;;;9.33;8.63;;;23.20;99.90;;;;;;5015661;28;20802;-62
2022/06/30 06:20:24;;;;;;;9.77;9.00;;;23.30;99.90;;;;;;5015288;28;20823;-63
2022/06/30 06:22:51;;;;;;;9.67;8.97;;;23.50;99.90;;;;;;5015618;28;20457;-62
2022/06/30 06:25:19;;;;;;;10.37;9.67;;;23.60;99.90;;;;;;5015358;28;20449;-62
2022/06/30 06:29:05;;;;;;;9.60;9.00;;;23.70;99.90;;;;;;5016312;28;20456;-62
2022/06/30 06:30:33;;;;;;;11.50;10.50;;;23.90;99.90;;;;;;5015780;28;20560;-63
2022/06/30 06:33:01;;;;;;;10.57;9.47;;;24.00;99.90;;;;;;5016427;28;20559;-63
2022/06/30 06:35:28;;;;;;;10.83;9.70;;;24.10;99.90;;;;;;5016322;28;20460;-62
2022/06/30 06:37:55;;;;;;;12.80;10.43;;;24.30;99.90;;;;;;5015914;28;20489;-63
2022/06/30 06:40:22;;;;;;;9.67;8.97;;;24.50;99.90;;;;;;5016141;28;20453;-63
2022/06/30 06:42:48;;;;;;;11.30;10.00;;;24.70;99.90;;;;;;5016181;28;20944;-63
2022/06/30 06:45:16;;;;;;;13.53;10.80;;;24.90;99.90;;;;;;5016020;28;20528;-63
2022/06/30 06:47:43;;;;;;;9.63;8.83;;;25.10;99.90;;;;;;5015800;28;20463;-62
2022/06/30 06:50:11;;;;;;;12.00;9.20;;;25.40;99.90;;;;;;5017634;28;20460;-63
2022/06/30 06:52:38;;;;;;;9.23;8.53;;;25.70;99.90;;;;;;5028383;28;20445;-63
2022/06/30 06:55:06;;;;;;;8.43;7.90;;;25.90;99.90;;;;;;5029785;28;20473;-63
2022/06/30 06:57:33;;;;;;;8.80;7.60;;;26.20;99.90;;;;;;5028817;28;20503;-63
2022/06/30 07:00:00;;;;;;;8.30;7.80;;;26.50;99.90;;;;;;5019420;28;20449;-62
2022/06/30 07:02:27;;;;;;;8.07;7.27;;;26.80;99.90;;;;;;5015081;28;20477;-62
2022/06/30 07:04:53;;;;;;;8.60;8.03;;;27.20;99.90;;;;;;5015278;28;20453;-62
2022/06/30 07:07:22;;;;;;;7.73;7.10;;;27.60;99.90;;;;;;5015418;28;20476;-62
2022/06/30 07:09:48;;;;;;;7.63;7.07;;;28.10;99.90;;;;;;5015112;28;20457;-62
2022/06/30 07:12:15;;;;;;;7.80;6.60;;;28.80;99.90;;;;;;5014818;28;20483;-63
2022/06/30 07:14:42;;;;;;;8.13;6.90;;;29.30;99.90;;;;;;5014299;28;21109;-63
2022/06/30 07:17:09;;;;;;;7.30;6.70;;;29.90;99.90;;;;;;5014439;28;20452;-63
2022/06/30 07:19:35;;;;;;;8.00;7.30;;;30.30;99.90;;;;;;5014391;28;20456;-63
2022/06/30 07:22:02;;;;;;;6.87;6.27;;;30.90;99.90;;;;;;5013987;28;21014;-62
2022/06/30 07:24:30;;;;;;;6.13;5.80;;;31.40;99.90;;;;;;5014047;28;20947;-62
2022/06/30 07:26:57;;;;;;;7.63;6.47;;;31.60;99.90;;;;;;5014316;28;20464;-63
2022/06/30 07:29:24;;;;;;;6.47;5.97;;;32.10;99.90;;;;;;5014209;28;20480;-63
2022/06/30 07:31:51;;;;;;;5.70;5.33;;;32.60;99.40;;;;;;5014215;28;20472;-63
2022/06/30 07:34:18;;;;;;;6.23;5.40;;;33.10;97.20;;;;;;5014305;28;20472;-63
2022/06/30 07:36:45;;;;;;;6.33;5.83;;;33.40;97.30;;;;;;5014244;28;20456;-63
2022/06/30 07:39:12;;;;;;;6.60;6.00;;;33.80;97.20;;;;;;5014113;28;20524;-63
2022/06/30 07:41:40;;;;;;;8.13;5.87;;;34.20;95.90;;;;;;5014175;28;20472;-63
2022/06/30 07:44:07;;;;;;;6.80;6.10;;;34.40;94.10;;;;;;5013941;28;20801;-63
2022/06/30 07:46:33;;;;;;;6.37;5.80;;;34.30;93.50;;;;;;5014144;28;20476;-63
2022/06/30 07:49:00;;;;;;;6.60;5.83;;;34.30;93.80;;;;;;5014107;28;20452;-63
2022/06/30 07:51:27;;;;;;;5.70;5.17;;;34.50;93.20;;;;;;5013961;28;20530;-63
2022/06/30 07:53:53;;;;;;;6.53;5.80;;;34.90;91.20;;;;;;5013919;28;20480;-63
2022/06/30 07:56:20;;;;;;;7.27;5.53;;;35.20;90.50;;;;;;5014088;28;20451;-63
2022/06/30 07:58:48;;;;;;;5.80;5.40;;;35.40;89.60;;;;;;5017339;28;20458;-63
2022/06/30 08:01:17;;;;;;;5.60;5.20;;;35.60;86.20;;;;;;5018031;28;21017;-63
2022/06/30 08:03:43;;;;;;;6.03;4.90;;;35.80;85.70;;;;;;5019003;28;20450;-63
2022/06/30 08:06:11;;;;;;;5.53;5.07;;;36.20;85.10;;;;;;5018368;28;20456;-63
2022/06/30 08:08:37;;;;;;;6.13;5.10;;;36.00;81.70;;;;;;5017866;28;20961;-63
2022/06/30 08:11:04;;;;;;;5.20;4.80;;;36.00;82.50;;;;;;5018194;28;20468;-62
2022/06/30 08:13:31;;;;;;;6.13;5.00;;;35.60;85.80;;;;;;5017998;28;20451;-62
2022/06/30 08:15:59;;;;;;;9.10;5.17;;;35.80;83.00;;;;;;5018289;28;20463;-62
2022/06/30 08:18:26;;;;;;;4.77;4.33;;;35.80;81.50;;;;;;5018203;28;20456;-62
2022/06/30 08:20:52;;;;;;;5.87;5.37;;;36.10;82.70;;;;;;5018091;28;20472;-64
2022/06/30 08:23:19;;;;;;;6.10;4.80;;;36.30;81.80;;;;;;5018199;28;20817;-63
2022/06/30 08:25:46;;;;;;;5.70;5.03;;;36.00;77.70;;;;;;5017967;28;20451;-64
2022/06/30 08:28:12;;;;;;;5.77;5.37;;;36.00;78.40;;;;;;5018026;28;20448;-64
2022/06/30 08:30:39;;;;;;;6.47;5.97;;;35.90;80.00;;;;;;5017999;28;20472;-64
2022/06/30 08:33:07;;;;;;;11.30;5.60;;;35.70;79.80;;;;;;5017691;28;20452;-64
2022/06/30 08:35:34;;;;;;;4.67;4.37;;;35.80;78.30;;;;;;5018913;28;20479;-64
2022/06/30 08:38:01;;;;;;;4.93;4.63;;;36.00;78.70;;;;;;5019735;28;20946;-64
2022/06/30 08:43:14;;;;;;;5.10;4.70;;;36.40;78.10;;;;;;5018876;28;20471;-64
2022/06/30 08:45:44;;;;;;;6.83;4.40;;;36.30;74.90;;;;;;5017598;28;20445;-64
2022/06/30 08:48:13;;;;;;;5.60;5.20;;;36.50;76.80;;;;;;5017040;28;20941;-64
2022/06/30 08:50:43;;;;;;;8.23;5.00;;;36.90;72.80;;;;;;5017313;28;20472;-64
2022/06/30 08:53:11;;;;;;;4.50;4.20;;;37.30;74.30;;;;;;5017017;28;20459;-64
2022/06/30 08:55:38;;;;;;;5.13;4.73;;;37.50;74.20;;;;;;5016787;28;20890;-64
2022/06/30 08:58:07;;;;;;;7.83;4.17;;;37.60;70.40;;;;;;5017085;28;20452;-65
2022/06/30 09:00:35;;;;;;;4.60;4.30;;;37.80;69.30;;;;;;5016971;28;20480;-64
2022/06/30 09:03:02;;;;;;;5.47;4.10;;;38.20;67.50;;;;;;5017096;28;20440;-64
2022/06/30 09:05:31;;;;;;;5.17;4.80;;;38.50;67.60;;;;;;5016967;28;20452;-64
2022/06/30 09:07:58;;;;;;;4.57;4.27;;;38.50;63.60;;;;;;5016866;28;20456;-64
2022/06/30 09:10:25;;;;;;;6.30;3.97;;;38.80;63.60;;;;;;5016255;28;20462;-65
2022/06/30 09:12:58;;;;;;;5.23;4.27;;;38.80;63.10;;;;;;5016826;28;20550;-65
2022/06/30 09:15:25;;;;;;;4.90;4.40;;;38.90;62.00;;;;;;5016493;28;20499;-64
2022/06/30 09:17:53;;;;;;;4.33;4.07;;;38.10;61.70;;;;;;5016560;28;20480;-63
2022/06/30 09:20:31;;;;;;;6.03;4.40;;;38.20;65.10;;;;;;5016565;28;20456;-65
2022/06/30 09:23:00;;;;;;;3.40;3.20;;;38.40;63.50;;;;;;5016759;28;20444;-64
2022/06/30 09:25:30;;;;;;;4.27;3.90;;;38.60;63.90;;;;;;5016751;28;20491;-64
2022/06/30 09:27:57;;;;;;;4.97;4.57;;;38.30;60.10;;;;;;5016502;28;20498;-64
2022/06/30 09:30:26;;;;;;;4.03;3.50;;;38.70;63.40;;;;;;5016077;28;20944;-65
2022/06/30 09:32:54;;;;;;;3.70;3.50;;;39.30;59.50;;;;;;5016358;28;20683;-64
2022/06/30 09:35:22;;;;;;;3.83;3.50;;;39.20;61.30;;;;;;5016621;28;20225;-65
2022/06/30 09:38:02;;;;;;;4.00;3.80;;;39.80;56.80;;;;;;5015995;28;20197;-65
2022/06/30 09:40:31;;;;;;;4.10;3.70;;;39.40;57.80;;;;;;5016293;28;20189;-65
2022/06/30 09:42:58;;;;;;;6.63;3.90;;;39.60;57.80;;;;;;5018477;28;20208;-65
2022/06/30 09:45:36;;;;;;;3.80;3.60;;;39.30;56.70;;;;;;5018027;28;20198;-64
2022/06/30 09:48:04;;;;;;;5.13;3.47;;;38.50;57.20;;;;;;5018339;28;20452;-64
2022/06/30 09:50:30;;;;;;;3.67;3.43;;;37.90;56.00;;;;;;5016573;28;20459;-64
2022/06/30 09:53:07;;;;;;;3.90;3.60;;;37.70;57.70;;;;;;5016348;28;20452;-63
2022/06/30 09:55:38;;;;;;;4.67;3.50;;;37.70;58.10;;;;;;5015783;28;20991;-63
2022/06/30 09:58:05;;;;;;;4.30;3.90;;;38.40;56.50;;;;;;5016637;28;20488;-63
2022/06/30 10:00:43;;;;;;;3.97;3.60;;;38.20;55.00;;;;;;5016574;28;20484;-63
2022/06/30 10:03:10;;;;;;;5.10;3.80;;;37.50;55.50;;;;;;5016016;28;20440;-64
2022/06/30 10:05:38;;;;;;;3.30;2.97;;;37.90;58.40;;;;;;5015593;28;20947;-63
2022/06/30 10:08:07;;;;;;;4.20;3.30;;;38.40;58.50;;;;;;5016032;28;20456;-64
2022/06/30 10:10:34;;;;;;;3.27;3.07;;;38.80;55.70;;;;;;5015982;28;20472;-63
2022/06/30 10:13:02;;;;;;;3.93;3.63;;;38.80;56.00;;;;;;5015755;28;20460;-63
2022/06/30 10:15:33;;;;;;;3.07;2.97;;;39.20;55.70;;;;;;5015828;28;20563;-64
2022/06/30 10:18:02;;;;;;;4.17;3.80;;;39.40;55.60;;;;;;5015574;28;20440;-63
2022/06/30 10:20:33;;;;;;;3.73;3.50;;;39.60;57.60;;;;;;5015381;28;20194;-63
2022/06/30 10:23:00;;;;;;;3.43;3.13;;;39.60;54.80;;;;;;5016095;28;20177;-63
2022/06/30 10:25:29;;;;;;;3.40;3.17;;;39.70;51.50;;;;;;5015665;28;20660;-64
2022/06/30 10:27:56;;;;;;;8.03;3.50;;;39.00;52.30;;;;;;5015783;28;20200;-64
2022/06/30 10:30:27;;;;;;;3.80;3.40;;;38.30;54.30;;;;;;5016720;28;21002;-64
2022/06/30 10:33:03;;;;;;;4.07;3.77;;;37.90;54.30;;;;;;5015648;28;20813;-64
2022/06/30 10:35:42;;;;;;;4.23;3.50;;;38.10;54.10;;;;;;5016188;28;20464;-63
2022/06/30 10:38:16;;;;;;;3.30;3.10;;;38.20;56.30;;;;;;5015556;28;20444;-63
2022/06/30 10:40:54;;;;;;;3.50;3.20;;;38.40;55.90;;;;;;5015608;28;20490;-64
2022/06/30 10:43:21;;;;;;;2.93;2.67;;;38.60;54.70;;;;;;5015304;28;20440;-64
2022/06/30 10:45:56;;;;;;;3.20;3.00;;;39.20;54.20;;;;;;5015196;28;20459;-63
2022/06/30 10:48:23;;;;;;;3.67;3.47;;;39.30;54.90;;;;;;5014993;28;20456;-63
2022/06/30 10:50:52;;;;;;;3.90;3.60;;;39.50;53.30;;;;;;5014617;28;20268;-64
2022/06/30 10:53:38;;;;;;;3.70;3.50;;;39.80;51.20;;;;;;5015005;28;20363;-64
2022/06/30 10:56:06;;;;;;;9.00;3.40;;;39.60;51.30;;;;;;5005969;28;20313;-63
2022/06/30 10:58:33;;;;;;;4.80;3.23;;;39.80;52.40;;;;;;5014670;28;20683;-63
2022/06/30 11:01:02;;;;;;;3.03;2.80;;;40.00;50.80;;;;;;5023950;28;20222;-64
2022/06/30 11:04:00;;;;;;;3.33;3.00;;;40.10;47.20;;;;;;5019176;28;20201;-64
2022/06/30 11:07:06;;;;;;;3.13;2.90;;;39.80;48.10;;;;;;5014878;28;20177;-63
2022/06/30 11:10:17;;;;;;;3.40;3.17;;;39.20;48.40;;;;;;5014509;28;20525;-63
2022/06/30 11:13:09;;;;;;;3.40;2.80;;;38.90;50.40;;;;;;5014604;28;20471;-63
2022/06/30 11:15:57;;;;;;;3.17;2.90;;;38.70;48.30;;;;;;5009399;28;20534;-63
2022/06/30 11:18:25;;;;;;;5.00;3.40;;;39.00;49.00;;;;;;5014725;28;20456;-63
2022/06/30 11:20:53;;;;;;;3.70;3.37;;;39.10;50.00;;;;;;5014443;28;20472;-64
2022/06/30 11:23:23;;;;;;;4.57;4.27;;;38.90;49.10;;;;;;5014601;28;20452;-64
2022/06/30 11:28:39;;;;;;;3.67;3.37;;;38.50;50.50;;;;;;5016552;28;20781;-64
2022/06/30 11:31:21;;;;;;;5.53;3.10;;;38.30;49.50;;;;;;5015040;28;20476;-64
2022/06/30 11:33:52;;;;;;;4.63;3.70;;;38.00;50.70;;;;;;5013723;28;20896;-64
2022/06/30 11:36:19;;;;;;;4.00;3.50;;;37.70;51.20;;;;;;5014319;28;20487;-64
2022/06/30 11:38:53;;;;;;;5.07;3.53;;;37.20;50.50;;;;;;5014491;28;20452;-64
2022/06/30 11:44:08;;;;;;;3.43;3.20;;;36.70;50.90;;;;;;5014508;28;20463;-64
2022/06/30 11:46:51;;;;;;;6.63;3.47;;;36.40;50.50;;;;;;5015885;28;20788;-64
2022/06/30 11:49:18;;;;;;;4.20;3.57;;;36.10;53.30;;;;;;5014597;28;20464;-64
2022/06/30 11:51:45;;;;;;;3.53;3.23;;;36.10;53.30;;;;;;5014748;28;20476;-64
2022/06/30 11:54:13;;;;;;;3.63;3.33;;;36.00;52.60;;;;;;5014829;28;20483;-64
2022/06/30 11:56:44;;;;;;;3.97;2.93;;;35.90;52.70;;;;;;5014288;28;20480;-63
2022/06/30 11:59:12;;;;;;;5.60;3.10;;;35.90;52.60;;;;;;5014803;28;20484;-64
2022/06/30 12:01:39;;;;;;;4.50;3.57;;;35.60;52.00;;;;;;5014301;28;20479;-63
2022/06/30 12:04:14;;;;;;;4.07;3.77;;;35.50;53.10;;;;;;5014744;28;20951;-63
2022/06/30 12:06:40;;;;;;;3.50;3.40;;;35.50;55.30;;;;;;5015272;28;20938;-63
2022/06/30 12:09:07;;;;;;;5.23;3.13;;;35.30;53.40;;;;;;5015443;28;20457;-64
2022/06/30 12:11:35;;;;;;;3.73;3.43;;;35.40;53.50;;;;;;5016439;28;20476;-64
2022/06/30 12:14:02;;;;;;;4.30;3.77;;;35.40;55.40;;;;;;5014536;28;20959;-65
2022/06/30 12:16:30;;;;;;;5.73;3.33;;;35.40;54.50;;;;;;5014139;28;20513;-64
2022/06/30 12:18:57;;;;;;;3.97;3.77;;;35.30;54.50;;;;;;5014232;28;20452;-64
2022/06/30 12:21:24;;;;;;;4.33;3.93;;;35.00;53.90;;;;;;5014566;28;20476;-63
2022/06/30 12:23:51;;;;;;;5.67;3.97;;;35.00;55.40;;;;;;5014574;28;20463;-64
2022/06/30 12:26:18;;;;;;;5.00;3.30;;;35.00;57.10;;;;;;5014518;28;20448;-64
2022/06/30 12:28:46;;;;;;;5.03;3.77;;;35.00;56.20;;;;;;5014083;28;20457;-64
2022/06/30 12:31:23;;;;;;;3.73;3.53;;;35.20;57.90;;;;;;5014075;28;20472;-64
2022/06/30 12:33:52;;;;;;;3.73;3.43;;;35.40;55.90;;;;;;5013999;28;20437;-64
2022/06/30 12:36:19;;;;;;;3.70;3.40;;;35.50;54.80;;;;;;5013668;28;20479;-64
2022/06/30 12:38:46;;;;;;;4.83;4.40;;;35.70;54.10;;;;;;5013874;28;20532;-64
2022/06/30 12:41:13;;;;;;;4.00;3.70;;;35.80;54.20;;;;;;5013828;28;20476;-64
2022/06/30 12:43:45;;;;;;;5.00;3.80;;;35.60;52.90;;;;;;5013652;28;20452;-64
2022/06/30 12:46:12;;;;;;;4.83;3.23;;;35.50;52.80;;;;;;5016883;28;20448;-64
2022/06/30 12:48:42;;;;;;;6.00;4.20;;;35.50;53.00;;;;;;5017020;28;20456;-64
2022/06/30 12:51:12;;;;;;;4.50;4.10;;;35.60;53.60;;;;;;5016924;28;20479;-64
2022/06/30 12:53:40;;;;;;;4.50;3.43;;;35.70;54.40;;;;;;5016971;28;20463;-64
2022/06/30 12:56:09;;;;;;;3.80;3.50;;;35.70;53.90;;;;;;5017015;28;20553;-64
2022/06/30 12:58:47;;;;;;;4.43;4.13;;;35.70;54.50;;;;;;5016857;28;20459;-64
2022/06/30 13:01:16;;;;;;;4.30;4.00;;;35.70;54.70;;;;;;5016477;28;20850;-64
2022/06/30 13:03:57;;;;;;;3.97;3.57;;;35.60;52.90;;;;;;5016872;28;20456;-63
2022/06/30 13:06:27;;;;;;;5.23;3.73;;;35.30;52.90;;;;;;5016900;28;20442;-63
2022/06/30 13:08:54;;;;;;;3.77;3.50;;;35.20;52.50;;;;;;5016867;28;20452;-64
2022/06/30 13:11:25;;;;;;;7.77;5.23;;;35.00;53.30;;;;;;5016825;28;20472;-63
2022/06/30 13:13:53;;;;;;;9.67;8.80;;;34.90;54.90;;;;;;5016777;28;20804;-64
2022/06/30 13:16:20;;;;;;;5.00;4.67;;;35.00;54.60;;;;;;5016751;28;20503;-63
2022/06/30 13:18:48;;;;;;;4.97;4.30;;;34.90;52.40;;;;;;5016291;28;20936;-64
2022/06/30 13:21:15;;;;;;;3.90;3.70;;;35.10;54.00;;;;;;5016417;28;20476;-64
2022/06/30 13:23:43;;;;;;;4.10;3.80;;;35.20;54.70;;;;;;5016557;28;20452;-63
2022/06/30 13:26:10;;;;;;;3.53;3.33;;;35.30;53.70;;;;;;5016590;28;20452;-64
2022/06/30 13:28:37;;;;;;;4.20;3.90;;;35.40;54.90;;;;;;5016444;28;20452;-64
2022/06/30 13:31:03;;;;;;;3.60;3.40;;;35.60;55.40;;;;;;5016455;28;20499;-64
2022/06/30 13:33:33;;;;;;;3.37;3.17;;;35.70;54.70;;;;;;5017265;28;20452;-65
2022/06/30 13:36:01;;;;;;;3.97;3.73;;;35.80;53.80;;;;;;5018402;28;20536;-63
2022/06/30 13:38:28;;;;;;;5.10;4.50;;;35.70;52.90;;;;;;5018673;28;20456;-64
2022/06/30 13:40:56;;;;;;;4.20;3.80;;;35.90;56.00;;;;;;5017409;28;20479;-66
2022/06/30 13:43:23;;;;;;;4.00;3.80;;;36.00;54.20;;;;;;5017773;28;20452;-64
2022/06/30 13:45:50;;;;;;;3.63;3.53;;;35.80;53.80;;;;;;5018949;28;20931;-64
2022/06/30 13:48:17;;;;;;;5.47;4.13;;;35.80;52.60;;;;;;5019088;28;20958;-64
2022/06/30 13:50:44;;;;;;;4.13;3.60;;;35.70;52.60;;;;;;5017865;28;20476;-65
2022/06/30 13:53:10;;;;;;;4.60;4.27;;;35.70;54.30;;;;;;5017408;28;20935;-64
2022/06/30 13:55:37;;;;;;;4.10;3.90;;;35.60;53.10;;;;;;5017355;28;20476;-62
2022/06/30 13:58:05;;;;;;;4.07;3.77;;;35.50;52.60;;;;;;5017587;28;20436;-62
2022/06/30 14:00:32;;;;;;;4.73;4.23;;;35.50;54.10;;;;;;5016522;28;20468;-62
2022/06/30 14:02:59;;;;;;;4.33;4.03;;;35.20;53.20;;;;;;5016746;28;20912;-62
2022/06/30 14:05:25;;;;;;;4.20;3.90;;;35.00;53.40;;;;;;5016033;28;20956;-62
2022/06/30 14:07:52;;;;;;;5.37;4.60;;;34.90;55.20;;;;;;5016209;28;20452;-61
2022/06/30 14:10:19;;;;;;;4.40;4.00;;;34.80;53.50;;;;;;5016189;28;20460;-62
2022/06/30 14:12:46;;;;;;;5.87;3.83;;;34.60;55.00;;;;;;5016296;28;20577;-62
2022/06/30 14:15:15;;;;;;;4.97;3.97;;;34.40;54.80;;;;;;5015700;28;20820;-62
2022/06/30 14:17:42;;;;;;;6.47;4.00;;;34.10;55.60;;;;;;5015472;28;20952;-62
2022/06/30 14:20:10;;;;;;;5.97;3.80;;;33.80;56.60;;;;;;5015837;28;20463;-62
2022/06/30 14:22:38;;;;;;;5.20;3.60;;;33.70;55.90;;;;;;5015953;28;20472;-62
2022/06/30 14:25:06;;;;;;;5.03;4.17;;;33.60;55.90;;;;;;5015711;28;20463;-62
2022/06/30 14:27:33;;;;;;;3.90;3.60;;;33.40;56.30;;;;;;5016237;28;20530;-62
2022/06/30 14:30:00;;;;;;;5.17;4.00;;;33.40;56.40;;;;;;5015408;28;20906;-62
2022/06/30 14:32:29;;;;;;;4.20;3.80;;;33.10;56.60;;;;;;5015498;28;20550;-62
2022/06/30 14:34:56;;;;;;;4.10;3.73;;;33.00;57.10;;;;;;5015168;28;20887;-62
2022/06/30 14:37:23;;;;;;;8.83;4.70;;;33.00;57.90;;;;;;5015824;28;20480;-62
2022/06/30 14:39:50;;;;;;;5.40;3.90;;;33.00;57.50;;;;;;5015570;28;20457;-62
2022/06/30 14:45:02;;;;;;;8.37;5.30;;;33.00;58.00;;;;;;5015065;28;20416;-62
2022/06/30 14:47:30;;;;;;;7.07;5.70;;;32.90;57.70;;;;;;5015186;28;20793;-62
2022/06/30 14:49:57;;;;;;;4.50;4.10;;;32.90;58.40;;;;;;5014781;28;20901;-62
2022/06/30 14:52:25;;;;;;;6.83;4.07;;;32.70;58.60;;;;;;5015009;28;20472;-62
2022/06/30 14:54:51;;;;;;;8.20;3.70;;;32.60;58.80;;;;;;5015079;28;20456;-62
2022/06/30 14:57:18;;;;;;;4.70;4.10;;;32.40;59.80;;;;;;5014839;28;20483;-62
2022/06/30 14:59:45;;;;;;;4.80;3.73;;;32.30;58.30;;;;;;5015225;28;20456;-62
2022/06/30 15:02:11;;;;;;;9.00;4.50;;;32.10;59.30;;;;;;5014008;28;20480;-62
2022/06/30 15:04:39;;;;;;;3.40;3.05;;;32.00;59.70;;;;;;5013877;28;20457;-63
2022/06/30 15:07:07;;;;;;;8.23;4.80;;;32.00;59.10;;;;;;5014101;28;20231;-63
2022/06/30 15:09:35;;;;;;;4.97;4.53;;;31.80;58.60;;;;;;5014760;28;20855;-64
2022/06/30 15:12:02;;;;;;;5.40;4.47;;;31.70;59.30;;;;;;5014526;28;20542;-63
2022/06/30 15:14:28;;;;;;;5.30;3.77;;;31.70;66.90;;;;;;5014727;28;20456;-63
2022/06/30 15:16:55;;;;;;;6.80;4.50;;;31.60;66.70;;;;;;5014767;28;20473;-63
2022/06/30 15:19:22;;;;;;;4.70;4.23;;;31.40;66.00;;;;;;5014268;28;20943;-63
2022/06/30 15:24:34;;;;;;;7.47;4.87;;;31.30;67.80;;;;;;5014296;28;20412;-64
2022/06/30 15:27:02;;;;;;;4.27;3.97;;;31.20;68.40;;;;;;5014948;28;20507;-63
2022/06/30 15:29:28;;;;;;;4.40;4.10;;;31.10;70.80;;;;;;5014583;28;20856;-63
2022/06/30 15:31:57;;;;;;;5.03;4.50;;;31.00;71.40;;;;;;5014763;28;20469;-64
2022/06/30 15:34:25;;;;;;;4.23;3.93;;;30.90;69.20;;;;;;5014880;28;20460;-63
2022/06/30 15:36:53;;;;;;;6.97;4.63;;;30.80;68.40;;;;;;5014781;28;20515;-63
2022/06/30 15:39:20;;;;;;;4.27;4.07;;;30.60;72.50;;;;;;5014102;28;20453;-63
2022/06/30 15:41:48;;;;;;;4.90;4.40;;;30.60;74.10;;;;;;5014102;28;20527;-63
2022/06/30 15:44:15;;;;;;;5.10;4.70;;;30.50;73.10;;;;;;5018487;28;20449;-65
2022/06/30 15:46:42;;;;;;;5.20;4.70;;;30.40;72.70;;;;;;5019517;28;20457;-64
2022/06/30 15:49:09;;;;;;;6.17;4.43;;;30.30;71.80;;;;;;5016739;28;20441;-64
2022/06/30 15:51:37;;;;;;;5.80;4.97;;;30.30;71.40;;;;;;5013954;28;20682;-64
2022/06/30 15:54:05;;;;;;;6.20;5.60;;;30.20;72.50;;;;;;5013905;28;20480;-63
2022/06/30 15:56:32;;;;;;;5.80;5.30;;;30.20;72.30;;;;;;5013738;28;20526;-63
2022/06/30 15:59:00;;;;;;;7.83;5.20;;;30.10;72.80;;;;;;5013475;28;20962;-64
2022/06/30 16:01:27;;;;;;;10.40;4.90;;;30.00;74.10;;;;;;5013361;28;20497;-63
2022/06/30 16:03:55;;;;;;;6.30;5.70;;;29.90;78.20;;;;;;5013641;28;21002;-63
2022/06/30 16:06:22;;;;;;;6.00;5.30;;;29.60;80.40;;;;;;5013509;28;20547;-63
2022/06/30 16:08:49;;;;;;;6.57;5.90;;;29.40;83.40;;;;;;5013748;28;20460;-63
2022/06/30 16:11:17;;;;;;;9.80;6.10;;;29.10;86.90;;;;;;5013736;28;20476;-63
2022/06/30 16:13:44;;;;;;;6.93;6.20;;;28.90;91.20;;;;;;5013364;28;20459;-63
2022/06/30 16:16:12;;;;;;;10.73;7.53;;;28.70;93.30;;;;;;5013290;28;20921;-63
2022/06/30 16:18:39;;;;;;;6.77;5.90;;;28.40;97.30;;;;;;5015050;28;20455;-63
2022/06/30 16:21:06;;;;;;;7.53;6.87;;;28.30;99.90;;;;;;5017638;28;20504;-63
2022/06/30 16:23:33;;;;;;;6.83;6.23;;;28.10;99.90;;;;;;5017314;28;21001;-63
2022/06/30 16:26:01;;;;;;;8.53;6.73;;;27.90;99.90;;;;;;5017396;28;20457;-63
2022/06/30 16:28:30;;;;;;;8.33;7.53;;;27.80;99.90;;;;;;5017436;28;20460;-63
2022/06/30 16:30:56;;;;;;;7.87;7.27;;;27.60;99.90;;;;;;5017399;28;20479;-63
2022/06/30 16:33:23;;;;;;;8.23;7.43;;;27.40;99.90;;;;;;5017827;28;20922;-63
2022/06/30 16:35:50;;;;;;;9.40;8.00;;;27.30;99.90;;;;;;5017451;28;20460;-63
2022/06/30 16:38:16;;;;;;;9.30;7.90;;;27.20;99.90;;;;;;5017681;28;20459;-63
2022/06/30 16:40:46;;;;;;;9.83;9.00;;;27.10;99.90;;;;;;5017587;28;20480;-63
2022/06/30 16:43:13;;;;;;;8.30;7.40;;;27.00;99.90;;;;;;5017882;28;20507;-63
2022/06/30 16:45:41;;;;;;;11.03;8.23;;;27.10;99.90;;;;;;5017764;28;20459;-63
2022/06/30 16:48:08;;;;;;;10.03;7.57;;;27.00;99.90;;;;;;5017566;28;20453;-63
2022/06/30 16:50:34;;;;;;;11.43;8.80;;;27.00;99.90;;;;;;5017457;28;20456;-63
2022/06/30 16:53:01;;;;;;;8.37;7.67;;;27.00;99.90;;;;;;5017006;28;20956;-64
2022/06/30 16:55:29;;;;;;;9.37;8.37;;;27.00;99.90;;;;;;5017694;28;20468;-63
2022/06/30 16:57:56;;;;;;;10.10;8.27;;;27.00;99.90;;;;;;5017561;28;20512;-63
2022/06/30 17:00:23;;;;;;;8.90;8.17;;;27.10;99.90;;;;;;5017190;28;20453;-64
2022/06/30 17:02:51;;;;;;;8.07;7.30;;;27.10;99.90;;;;;;5016877;28;20444;-64
2022/06/30 17:05:18;;;;;;;7.30;6.70;;;27.10;99.90;;;;;;5016821;28;20873;-64
2022/06/30 17:07:45;;;;;;;12.00;7.20;;;27.20;99.90;;;;;;5016690;28;20449;-63